sensor_id;sensor_type;location;lat;lon;timestamp;pressure;altitude;pressure_sealevel;temperature
8533;BMP280;4304;53.876;10.662;2023-08-21T00:00:01;102153.41;;;17.51
8533;BMP280;4304;53.876;10.662;2023-08-21T00:02:26;102152.44;;;17.52
8533;BMP280;4304;53.876;10.662;2023-08-21T00:04:53;102158.91;;;17.48
8533;BMP280;4304;53.876;10.662;2023-08-21T00:07:19;102147.16;;;17.41
8533;BMP280;4304;53.876;10.662;2023-08-21T00:09:44;102147.28;;;17.40
8533;BMP280;4304;53.876;10.662;2023-08-21T00:12:09;102140.66;;;17.34
8533;BMP280;4304;53.876;10.662;2023-08-21T00:14:34;102137.53;;;17.29
8533;BMP280;4304;53.876;10.662;2023-08-21T00:17:01;102140.25;;;17.28
8533;BMP280;4304;53.876;10.662;2023-08-21T00:19:26;102135.13;;;17.26
8533;BMP280;4304;53.876;10.662;2023-08-21T00:21:51;102144.69;;;17.27
8533;BMP280;4304;53.876;10.662;2023-08-21T00:24:17;102143.03;;;17.26
8533;BMP280;4304;53.876;10.662;2023-08-21T00:26:42;102138.81;;;17.24
8533;BMP280;4304;53.876;10.662;2023-08-21T00:29:08;102142.53;;;17.21
8533;BMP280;4304;53.876;10.662;2023-08-21T00:31:33;102143.75;;;17.16
8533;BMP280;4304;53.876;10.662;2023-08-21T00:33:58;102147.34;;;17.15
8533;BMP280;4304;53.876;10.662;2023-08-21T00:36:24;102145.97;;;17.09
8533;BMP280;4304;53.876;10.662;2023-08-21T00:38:49;102147.78;;;17.09
8533;BMP280;4304;53.876;10.662;2023-08-21T00:41:14;102147.47;;;17.01
8533;BMP280;4304;53.876;10.662;2023-08-21T00:43:40;102150.09;;;17.01
8533;BMP280;4304;53.876;10.662;2023-08-21T00:46:06;102150.44;;;16.97
8533;BMP280;4304;53.876;10.662;2023-08-21T00:48:32;102143.72;;;16.93
8533;BMP280;4304;53.876;10.662;2023-08-21T00:50:57;102148.97;;;16.93
8533;BMP280;4304;53.876;10.662;2023-08-21T00:53:23;102136.91;;;16.90
8533;BMP280;4304;53.876;10.662;2023-08-21T00:55:49;102143.63;;;16.82
8533;BMP280;4304;53.876;10.662;2023-08-21T00:58:16;102146.06;;;16.85
8533;BMP280;4304;53.876;10.662;2023-08-21T01:00:46;102137.13;;;16.87
8533;BMP280;4304;53.876;10.662;2023-08-21T01:03:14;102144.66;;;16.92
8533;BMP280;4304;53.876;10.662;2023-08-21T01:05:39;102151.31;;;16.85
8533;BMP280;4304;53.876;10.662;2023-08-21T01:08:10;102148.28;;;16.78
8533;BMP280;4304;53.876;10.662;2023-08-21T01:10:43;102147.25;;;16.68
8533;BMP280;4304;53.876;10.662;2023-08-21T01:16:04;102145.28;;;16.60
8533;BMP280;4304;53.876;10.662;2023-08-21T01:18:31;102154.28;;;16.56
8533;BMP280;4304;53.876;10.662;2023-08-21T01:20:58;102150.41;;;16.49
8533;BMP280;4304;53.876;10.662;2023-08-21T01:25:57;102154.75;;;16.50
8533;BMP280;4304;53.876;10.662;2023-08-21T01:28:22;102164.28;;;16.51
8533;BMP280;4304;53.876;10.662;2023-08-21T01:30:49;102159.38;;;16.46
8533;BMP280;4304;53.876;10.662;2023-08-21T01:33:16;102156.44;;;16.38
8533;BMP280;4304;53.876;10.662;2023-08-21T01:35:42;102167.13;;;16.35
8533;BMP280;4304;53.876;10.662;2023-08-21T01:38:08;102154.84;;;16.36
8533;BMP280;4304;53.876;10.662;2023-08-21T01:40:33;102161.03;;;16.35
8533;BMP280;4304;53.876;10.662;2023-08-21T01:42:58;102163.78;;;16.33
8533;BMP280;4304;53.876;10.662;2023-08-21T01:45:24;102160.63;;;16.28
8533;BMP280;4304;53.876;10.662;2023-08-21T01:47:49;102167.97;;;16.24
8533;BMP280;4304;53.876;10.662;2023-08-21T01:50:15;102164.63;;;16.22
8533;BMP280;4304;53.876;10.662;2023-08-21T01:52:40;102166.69;;;16.17
8533;BMP280;4304;53.876;10.662;2023-08-21T01:55:06;102161.63;;;16.14
8533;BMP280;4304;53.876;10.662;2023-08-21T01:57:35;102168.78;;;16.12
8533;BMP280;4304;53.876;10.662;2023-08-21T02:00:01;102168.97;;;16.09
8533;BMP280;4304;53.876;10.662;2023-08-21T02:02:28;102163.09;;;16.05
8533;BMP280;4304;53.876;10.662;2023-08-21T02:04:53;102160.06;;;15.99
8533;BMP280;4304;53.876;10.662;2023-08-21T02:07:19;102165.50;;;15.96
8533;BMP280;4304;53.876;10.662;2023-08-21T02:09:44;102164.00;;;15.92
8533;BMP280;4304;53.876;10.662;2023-08-21T02:12:09;102173.66;;;15.91
8533;BMP280;4304;53.876;10.662;2023-08-21T02:14:35;102168.50;;;15.90
8533;BMP280;4304;53.876;10.662;2023-08-21T02:17:00;102159.81;;;15.89
8533;BMP280;4304;53.876;10.662;2023-08-21T02:19:25;102154.66;;;15.88
8533;BMP280;4304;53.876;10.662;2023-08-21T02:21:51;102162.84;;;15.83
8533;BMP280;4304;53.876;10.662;2023-08-21T02:24:16;102164.81;;;15.80
8533;BMP280;4304;53.876;10.662;2023-08-21T02:26:42;102172.69;;;15.80
8533;BMP280;4304;53.876;10.662;2023-08-21T02:29:08;102165.78;;;15.79
8533;BMP280;4304;53.876;10.662;2023-08-21T02:31:33;102171.22;;;15.76
8533;BMP280;4304;53.876;10.662;2023-08-21T02:33:58;102171.22;;;15.76
8533;BMP280;4304;53.876;10.662;2023-08-21T02:36:24;102166.19;;;15.73
8533;BMP280;4304;53.876;10.662;2023-08-21T02:38:49;102168.16;;;15.70
8533;BMP280;4304;53.876;10.662;2023-08-21T02:41:15;102161.97;;;15.71
8533;BMP280;4304;53.876;10.662;2023-08-21T02:43:40;102169.81;;;15.71
8533;BMP280;4304;53.876;10.662;2023-08-21T02:46:05;102174.66;;;15.64
8533;BMP280;4304;53.876;10.662;2023-08-21T02:48:30;102172.13;;;15.63
8533;BMP280;4304;53.876;10.662;2023-08-21T02:50:56;102167.28;;;15.57
8533;BMP280;4304;53.876;10.662;2023-08-21T02:53:21;102175.97;;;15.57
8533;BMP280;4304;53.876;10.662;2023-08-21T02:55:46;102169.06;;;15.56
8533;BMP280;4304;53.876;10.662;2023-08-21T02:58:12;102166.34;;;15.58
8533;BMP280;4304;53.876;10.662;2023-08-21T03:00:37;102169.81;;;15.58
8533;BMP280;4304;53.876;10.662;2023-08-21T03:03:03;102174.00;;;15.61
8533;BMP280;4304;53.876;10.662;2023-08-21T03:05:29;102165.19;;;15.62
8533;BMP280;4304;53.876;10.662;2023-08-21T03:07:54;102161.44;;;15.66
8533;BMP280;4304;53.876;10.662;2023-08-21T03:10:19;102171.63;;;15.70
8533;BMP280;4304;53.876;10.662;2023-08-21T03:12:45;102169.81;;;15.71
8533;BMP280;4304;53.876;10.662;2023-08-21T03:15:11;102167.00;;;15.74
8533;BMP280;4304;53.876;10.662;2023-08-21T03:17:36;102169.00;;;15.70
8533;BMP280;4304;53.876;10.662;2023-08-21T03:20:02;102168.38;;;15.67
8533;BMP280;4304;53.876;10.662;2023-08-21T03:22:30;102175.69;;;15.62
8533;BMP280;4304;53.876;10.662;2023-08-21T03:24:56;102171.59;;;15.58
8533;BMP280;4304;53.876;10.662;2023-08-21T03:27:22;102174.41;;;15.55
8533;BMP280;4304;53.876;10.662;2023-08-21T03:29:47;102177.13;;;15.53
8533;BMP280;4304;53.876;10.662;2023-08-21T03:32:18;102178.06;;;15.52
8533;BMP280;4304;53.876;10.662;2023-08-21T03:34:44;102168.53;;;15.51
8533;BMP280;4304;53.876;10.662;2023-08-21T03:37:09;102169.56;;;15.49
8533;BMP280;4304;53.876;10.662;2023-08-21T03:39:35;102173.25;;;15.46
8533;BMP280;4304;53.876;10.662;2023-08-21T03:42:00;102171.88;;;15.53
8533;BMP280;4304;53.876;10.662;2023-08-21T03:44:26;102166.66;;;15.53
8533;BMP280;4304;53.876;10.662;2023-08-21T03:46:51;102175.34;;;15.54
8533;BMP280;4304;53.876;10.662;2023-08-21T03:49:16;102172.09;;;15.50
8533;BMP280;4304;53.876;10.662;2023-08-21T03:51:42;102181.00;;;15.48
8533;BMP280;4304;53.876;10.662;2023-08-21T03:54:07;102169.00;;;15.44
8533;BMP280;4304;53.876;10.662;2023-08-21T03:56:32;102177.28;;;15.38
8533;BMP280;4304;53.876;10.662;2023-08-21T03:58:58;102172.34;;;15.34
8533;BMP280;4304;53.876;10.662;2023-08-21T04:01:23;102175.06;;;15.32
8533;BMP280;4304;53.876;10.662;2023-08-21T04:03:49;102173.47;;;15.30
8533;BMP280;4304;53.876;10.662;2023-08-21T04:06:14;102173.69;;;15.27
8533;BMP280;4304;53.876;10.662;2023-08-21T04:08:39;102182.19;;;15.30
8533;BMP280;4304;53.876;10.662;2023-08-21T04:11:06;102180.47;;;15.29
8533;BMP280;4304;53.876;10.662;2023-08-21T04:13:31;102186.78;;;15.27
8533;BMP280;4304;53.876;10.662;2023-08-21T04:15:57;102180.38;;;15.31
8533;BMP280;4304;53.876;10.662;2023-08-21T04:18:22;102185.44;;;15.34
8533;BMP280;4304;53.876;10.662;2023-08-21T04:20:48;102180.19;;;15.34
8533;BMP280;4304;53.876;10.662;2023-08-21T04:23:14;102191.50;;;15.34
8533;BMP280;4304;53.876;10.662;2023-08-21T04:25:39;102188.50;;;15.40
8533;BMP280;4304;53.876;10.662;2023-08-21T04:28:04;102179.31;;;15.47
8533;BMP280;4304;53.876;10.662;2023-08-21T04:30:31;102185.19;;;15.50
8533;BMP280;4304;53.876;10.662;2023-08-21T04:32:56;102185.63;;;15.57
8533;BMP280;4304;53.876;10.662;2023-08-21T04:35:21;102187.09;;;15.61
8533;BMP280;4304;53.876;10.662;2023-08-21T04:37:47;102190.25;;;15.66
8533;BMP280;4304;53.876;10.662;2023-08-21T04:40:13;102193.19;;;15.61
8533;BMP280;4304;53.876;10.662;2023-08-21T04:42:39;102203.25;;;15.67
8533;BMP280;4304;53.876;10.662;2023-08-21T04:45:04;102187.06;;;15.75
8533;BMP280;4304;53.876;10.662;2023-08-21T04:47:31;102190.84;;;15.83
8533;BMP280;4304;53.876;10.662;2023-08-21T04:49:56;102188.56;;;15.91
8533;BMP280;4304;53.876;10.662;2023-08-21T04:52:23;102192.25;;;16.01
8533;BMP280;4304;53.876;10.662;2023-08-21T04:54:49;102198.50;;;16.24
8533;BMP280;4304;53.876;10.662;2023-08-21T04:57:15;102200.41;;;16.35
8533;BMP280;4304;53.876;10.662;2023-08-21T04:59:41;102191.91;;;16.56
8533;BMP280;4304;53.876;10.662;2023-08-21T05:02:06;102184.94;;;16.80
8533;BMP280;4304;53.876;10.662;2023-08-21T05:04:32;102187.72;;;17.02
8533;BMP280;4304;53.876;10.662;2023-08-21T05:06:58;102192.50;;;17.32
8533;BMP280;4304;53.876;10.662;2023-08-21T05:09:23;102184.38;;;17.58
8533;BMP280;4304;53.876;10.662;2023-08-21T05:11:48;102186.53;;;17.88
8533;BMP280;4304;53.876;10.662;2023-08-21T05:14:14;102184.03;;;18.20
8533;BMP280;4304;53.876;10.662;2023-08-21T05:16:39;102186.81;;;18.30
8533;BMP280;4304;53.876;10.662;2023-08-21T05:19:05;102184.78;;;18.55
8533;BMP280;4304;53.876;10.662;2023-08-21T05:21:30;102185.53;;;18.68
8533;BMP280;4304;53.876;10.662;2023-08-21T05:23:55;102194.38;;;18.78
8533;BMP280;4304;53.876;10.662;2023-08-21T05:26:21;102197.16;;;19.09
8533;BMP280;4304;53.876;10.662;2023-08-21T05:28:46;102196.97;;;19.32
8533;BMP280;4304;53.876;10.662;2023-08-21T05:31:11;102184.28;;;19.57
8533;BMP280;4304;53.876;10.662;2023-08-21T05:33:37;102186.00;;;19.78
8533;BMP280;4304;53.876;10.662;2023-08-21T05:36:02;102193.28;;;20.17
8533;BMP280;4304;53.876;10.662;2023-08-21T05:38:28;102187.09;;;20.27
8533;BMP280;4304;53.876;10.662;2023-08-21T05:40:53;102192.94;;;20.31
8533;BMP280;4304;53.876;10.662;2023-08-21T05:43:19;102193.91;;;20.50
8533;BMP280;4304;53.876;10.662;2023-08-21T05:45:44;102194.72;;;20.51
8533;BMP280;4304;53.876;10.662;2023-08-21T05:48:09;102197.72;;;20.37
8533;BMP280;4304;53.876;10.662;2023-08-21T05:50:35;102201.41;;;20.75
8533;BMP280;4304;53.876;10.662;2023-08-21T05:53:05;102201.09;;;20.89
8533;BMP280;4304;53.876;10.662;2023-08-21T05:55:30;102192.03;;;20.82
8533;BMP280;4304;53.876;10.662;2023-08-21T05:57:56;102191.97;;;21.11
8533;BMP280;4304;53.876;10.662;2023-08-21T06:00:21;102198.47;;;21.46
8533;BMP280;4304;53.876;10.662;2023-08-21T06:02:47;102190.00;;;21.81
8533;BMP280;4304;53.876;10.662;2023-08-21T06:05:12;102193.03;;;21.67
8533;BMP280;4304;53.876;10.662;2023-08-21T06:07:37;102200.28;;;21.93
8533;BMP280;4304;53.876;10.662;2023-08-21T06:10:03;102207.22;;;22.41
8533;BMP280;4304;53.876;10.662;2023-08-21T06:12:30;102194.91;;;22.59
8533;BMP280;4304;53.876;10.662;2023-08-21T06:14:55;102200.28;;;22.76
8533;BMP280;4304;53.876;10.662;2023-08-21T06:17:20;102192.84;;;22.79
8533;BMP280;4304;53.876;10.662;2023-08-21T06:19:46;102203.34;;;23.08
8533;BMP280;4304;53.876;10.662;2023-08-21T06:22:11;102209.47;;;23.35
8533;BMP280;4304;53.876;10.662;2023-08-21T06:24:36;102206.81;;;23.61
8533;BMP280;4304;53.876;10.662;2023-08-21T06:27:02;102214.25;;;23.75
8533;BMP280;4304;53.876;10.662;2023-08-21T06:29:27;102206.28;;;23.75
8533;BMP280;4304;53.876;10.662;2023-08-21T06:31:53;102209.94;;;23.92
8533;BMP280;4304;53.876;10.662;2023-08-21T06:34:18;102207.34;;;24.00
8533;BMP280;4304;53.876;10.662;2023-08-21T06:36:43;102203.97;;;23.02
8533;BMP280;4304;53.876;10.662;2023-08-21T06:39:09;102209.72;;;23.58
8533;BMP280;4304;53.876;10.662;2023-08-21T06:41:34;102212.47;;;23.49
8533;BMP280;4304;53.876;10.662;2023-08-21T06:44:00;102217.97;;;24.00
8533;BMP280;4304;53.876;10.662;2023-08-21T06:46:25;102232.69;;;24.11
8533;BMP280;4304;53.876;10.662;2023-08-21T06:48:51;102233.72;;;24.01
8533;BMP280;4304;53.876;10.662;2023-08-21T06:51:16;102218.66;;;24.02
8533;BMP280;4304;53.876;10.662;2023-08-21T06:53:42;102221.13;;;24.20
8533;BMP280;4304;53.876;10.662;2023-08-21T06:56:07;102227.13;;;24.05
8533;BMP280;4304;53.876;10.662;2023-08-21T06:58:33;102232.06;;;23.83
8533;BMP280;4304;53.876;10.662;2023-08-21T07:01:02;102230.44;;;23.55
8533;BMP280;4304;53.876;10.662;2023-08-21T07:03:27;102222.91;;;23.77
8533;BMP280;4304;53.876;10.662;2023-08-21T07:05:54;102221.97;;;24.03
8533;BMP280;4304;53.876;10.662;2023-08-21T07:08:20;102227.31;;;24.29
8533;BMP280;4304;53.876;10.662;2023-08-21T07:10:46;102216.31;;;24.24
8533;BMP280;4304;53.876;10.662;2023-08-21T07:13:11;102227.31;;;24.71
8533;BMP280;4304;53.876;10.662;2023-08-21T07:15:36;102224.06;;;24.52
8533;BMP280;4304;53.876;10.662;2023-08-21T07:18:02;102214.59;;;24.32
8533;BMP280;4304;53.876;10.662;2023-08-21T07:20:28;102224.44;;;24.40
8533;BMP280;4304;53.876;10.662;2023-08-21T07:22:53;102230.31;;;24.76
8533;BMP280;4304;53.876;10.662;2023-08-21T07:25:18;102225.22;;;24.57
8533;BMP280;4304;53.876;10.662;2023-08-21T07:27:44;102218.44;;;24.63
8533;BMP280;4304;53.876;10.662;2023-08-21T07:30:09;102212.66;;;24.42
8533;BMP280;4304;53.876;10.662;2023-08-21T07:32:36;102223.69;;;24.47
8533;BMP280;4304;53.876;10.662;2023-08-21T07:35:01;102219.47;;;24.70
8533;BMP280;4304;53.876;10.662;2023-08-21T07:37:27;102225.34;;;24.81
8533;BMP280;4304;53.876;10.662;2023-08-21T07:39:52;102221.59;;;23.99
8533;BMP280;4304;53.876;10.662;2023-08-21T07:42:18;102232.97;;;24.26
8533;BMP280;4304;53.876;10.662;2023-08-21T07:44:44;102235.44;;;24.70
8533;BMP280;4304;53.876;10.662;2023-08-21T07:47:11;102233.78;;;24.69
8533;BMP280;4304;53.876;10.662;2023-08-21T07:49:36;102245.94;;;24.96
8533;BMP280;4304;53.876;10.662;2023-08-21T07:52:03;102251.16;;;25.14
8533;BMP280;4304;53.876;10.662;2023-08-21T07:54:29;102248.56;;;24.71
8533;BMP280;4304;53.876;10.662;2023-08-21T07:56:54;102238.78;;;24.72
8533;BMP280;4304;53.876;10.662;2023-08-21T07:59:20;102239.84;;;25.12
8533;BMP280;4304;53.876;10.662;2023-08-21T08:01:45;102236.97;;;25.46
8533;BMP280;4304;53.876;10.662;2023-08-21T08:04:11;102238.56;;;25.73
8533;BMP280;4304;53.876;10.662;2023-08-21T08:06:36;102253.41;;;25.99
8533;BMP280;4304;53.876;10.662;2023-08-21T08:09:02;102251.13;;;25.55
8533;BMP280;4304;53.876;10.662;2023-08-21T08:11:29;102236.72;;;24.91
8533;BMP280;4304;53.876;10.662;2023-08-21T08:13:55;102234.91;;;24.66
8533;BMP280;4304;53.876;10.662;2023-08-21T08:16:20;102231.03;;;24.86
8533;BMP280;4304;53.876;10.662;2023-08-21T08:18:46;102231.50;;;25.07
8533;BMP280;4304;53.876;10.662;2023-08-21T08:21:11;102236.94;;;25.38
8533;BMP280;4304;53.876;10.662;2023-08-21T08:23:36;102237.81;;;25.55
8533;BMP280;4304;53.876;10.662;2023-08-21T08:26:02;102252.25;;;26.01
8533;BMP280;4304;53.876;10.662;2023-08-21T08:28:27;102225.75;;;25.19
8533;BMP280;4304;53.876;10.662;2023-08-21T08:30:53;102237.63;;;24.74
8533;BMP280;4304;53.876;10.662;2023-08-21T08:33:19;102233.63;;;24.70
8533;BMP280;4304;53.876;10.662;2023-08-21T08:35:44;102265.94;;;25.08
8533;BMP280;4304;53.876;10.662;2023-08-21T08:38:09;102258.22;;;25.38
8533;BMP280;4304;53.876;10.662;2023-08-21T08:40:41;102266.13;;;25.56
8533;BMP280;4304;53.876;10.662;2023-08-21T08:43:07;102242.75;;;25.42
8533;BMP280;4304;53.876;10.662;2023-08-21T08:45:34;102245.72;;;25.72
8533;BMP280;4304;53.876;10.662;2023-08-21T08:48:00;102267.38;;;26.01
8533;BMP280;4304;53.876;10.662;2023-08-21T08:50:29;102265.06;;;26.21
8533;BMP280;4304;53.876;10.662;2023-08-21T08:52:55;102236.28;;;26.41
8533;BMP280;4304;53.876;10.662;2023-08-21T08:55:21;102246.78;;;26.42
8533;BMP280;4304;53.876;10.662;2023-08-21T08:57:47;102234.56;;;25.77
8533;BMP280;4304;53.876;10.662;2023-08-21T09:00:13;102244.25;;;25.93
8533;BMP280;4304;53.876;10.662;2023-08-21T09:02:38;102251.25;;;26.18
8533;BMP280;4304;53.876;10.662;2023-08-21T09:05:04;102256.91;;;26.23
8533;BMP280;4304;53.876;10.662;2023-08-21T09:07:29;102247.59;;;26.19
8533;BMP280;4304;53.876;10.662;2023-08-21T09:09:55;102254.22;;;25.99
8533;BMP280;4304;53.876;10.662;2023-08-21T09:12:21;102240.53;;;25.22
8533;BMP280;4304;53.876;10.662;2023-08-21T09:14:46;102243.91;;;24.65
8533;BMP280;4304;53.876;10.662;2023-08-21T09:17:12;102231.34;;;24.75
8533;BMP280;4304;53.876;10.662;2023-08-21T09:19:37;102228.66;;;25.00
8533;BMP280;4304;53.876;10.662;2023-08-21T09:22:14;102249.69;;;25.19
8533;BMP280;4304;53.876;10.662;2023-08-21T09:24:40;102222.66;;;24.98
8533;BMP280;4304;53.876;10.662;2023-08-21T09:27:24;102236.41;;;25.19
8533;BMP280;4304;53.876;10.662;2023-08-21T09:29:49;102253.56;;;24.99
8533;BMP280;4304;53.876;10.662;2023-08-21T09:32:14;102222.84;;;25.05
8533;BMP280;4304;53.876;10.662;2023-08-21T09:34:41;102225.69;;;25.52
8533;BMP280;4304;53.876;10.662;2023-08-21T09:37:07;102253.03;;;25.62
8533;BMP280;4304;53.876;10.662;2023-08-21T09:39:36;102230.72;;;24.89
8533;BMP280;4304;53.876;10.662;2023-08-21T09:42:06;102248.69;;;25.20
8533;BMP280;4304;53.876;10.662;2023-08-21T09:44:35;102260.44;;;24.77
8533;BMP280;4304;53.876;10.662;2023-08-21T09:47:01;102244.69;;;24.83
8533;BMP280;4304;53.876;10.662;2023-08-21T09:49:26;102237.81;;;24.81
8533;BMP280;4304;53.876;10.662;2023-08-21T09:51:52;102259.88;;;25.32
8533;BMP280;4304;53.876;10.662;2023-08-21T09:54:19;102264.75;;;25.52
8533;BMP280;4304;53.876;10.662;2023-08-21T09:56:46;102263.22;;;25.82
8533;BMP280;4304;53.876;10.662;2023-08-21T09:59:12;102265.22;;;26.04
8533;BMP280;4304;53.876;10.662;2023-08-21T10:01:39;102259.56;;;26.15
8533;BMP280;4304;53.876;10.662;2023-08-21T10:04:05;102277.69;;;25.80
8533;BMP280;4304;53.876;10.662;2023-08-21T10:06:31;102243.78;;;25.00
8533;BMP280;4304;53.876;10.662;2023-08-21T10:08:58;102222.22;;;25.19
8533;BMP280;4304;53.876;10.662;2023-08-21T10:11:23;102205.75;;;25.64
8533;BMP280;4304;53.876;10.662;2023-08-21T10:13:49;102256.91;;;25.91
8533;BMP280;4304;53.876;10.662;2023-08-21T10:16:16;102225.09;;;26.14
8533;BMP280;4304;53.876;10.662;2023-08-21T10:18:44;102270.78;;;26.34
8533;BMP280;4304;53.876;10.662;2023-08-21T10:21:14;102269.81;;;25.63
8533;BMP280;4304;53.876;10.662;2023-08-21T10:23:41;102226.63;;;25.43
8533;BMP280;4304;53.876;10.662;2023-08-21T10:26:10;102234.91;;;25.81
8533;BMP280;4304;53.876;10.662;2023-08-21T10:28:55;102252.31;;;25.60
8533;BMP280;4304;53.876;10.662;2023-08-21T10:31:32;102260.22;;;26.09
8533;BMP280;4304;53.876;10.662;2023-08-21T10:33:58;102262.56;;;25.88
8533;BMP280;4304;53.876;10.662;2023-08-21T10:39:14;102290.16;;;25.64
8533;BMP280;4304;53.876;10.662;2023-08-21T10:47:32;102293.50;;;25.89
8533;BMP280;4304;53.876;10.662;2023-08-21T10:50:01;102225.13;;;25.33
8533;BMP280;4304;53.876;10.662;2023-08-21T10:52:28;102256.97;;;25.09
8533;BMP280;4304;53.876;10.662;2023-08-21T10:54:58;102257.25;;;24.98
8533;BMP280;4304;53.876;10.662;2023-08-21T10:57:24;102266.06;;;24.99
8533;BMP280;4304;53.876;10.662;2023-08-21T10:59:56;102245.59;;;24.74
8533;BMP280;4304;53.876;10.662;2023-08-21T11:02:23;102241.88;;;24.92
8533;BMP280;4304;53.876;10.662;2023-08-21T11:04:50;102214.09;;;25.20
8533;BMP280;4304;53.876;10.662;2023-08-21T11:07:15;102247.19;;;25.18
8533;BMP280;4304;53.876;10.662;2023-08-21T11:09:41;102269.06;;;24.53
8533;BMP280;4304;53.876;10.662;2023-08-21T11:12:12;102261.56;;;24.49
8533;BMP280;4304;53.876;10.662;2023-08-21T11:14:38;102252.44;;;24.77
8533;BMP280;4304;53.876;10.662;2023-08-21T11:17:03;102257.97;;;24.83
8533;BMP280;4304;53.876;10.662;2023-08-21T11:19:32;102263.44;;;25.48
8533;BMP280;4304;53.876;10.662;2023-08-21T11:21:59;102281.50;;;25.70
8533;BMP280;4304;53.876;10.662;2023-08-21T11:27:04;102278.94;;;26.41
8533;BMP280;4304;53.876;10.662;2023-08-21T11:29:46;102287.03;;;26.79
8533;BMP280;4304;53.876;10.662;2023-08-21T11:32:14;102312.09;;;26.62
8533;BMP280;4304;53.876;10.662;2023-08-21T11:34:48;102283.41;;;26.48
8533;BMP280;4304;53.876;10.662;2023-08-21T11:37:13;102303.41;;;26.28
8533;BMP280;4304;53.876;10.662;2023-08-21T11:39:43;102295.91;;;26.48
8533;BMP280;4304;53.876;10.662;2023-08-21T11:42:10;102269.03;;;26.81
8533;BMP280;4304;53.876;10.662;2023-08-21T11:44:47;102263.03;;;26.71
8533;BMP280;4304;53.876;10.662;2023-08-21T11:47:13;102270.53;;;26.75
8533;BMP280;4304;53.876;10.662;2023-08-21T11:49:40;102282.19;;;26.82
8533;BMP280;4304;53.876;10.662;2023-08-21T11:52:10;102311.41;;;26.36
8533;BMP280;4304;53.876;10.662;2023-08-21T11:54:37;102320.19;;;26.05
8533;BMP280;4304;53.876;10.662;2023-08-21T11:57:07;102295.38;;;25.48
8533;BMP280;4304;53.876;10.662;2023-08-21T11:59:33;102321.47;;;25.36
8533;BMP280;4304;53.876;10.662;2023-08-21T12:01:59;102351.09;;;25.67
8533;BMP280;4304;53.876;10.662;2023-08-21T12:04:26;102313.88;;;25.98
8533;BMP280;4304;53.876;10.662;2023-08-21T12:06:52;102319.72;;;26.10
8533;BMP280;4304;53.876;10.662;2023-08-21T12:09:17;102333.94;;;26.34
8533;BMP280;4304;53.876;10.662;2023-08-21T12:11:44;102318.75;;;26.58
8533;BMP280;4304;53.876;10.662;2023-08-21T12:14:09;102309.41;;;26.62
8533;BMP280;4304;53.876;10.662;2023-08-21T12:16:35;102291.41;;;26.56
8533;BMP280;4304;53.876;10.662;2023-08-21T12:19:00;102285.88;;;26.89
8533;BMP280;4304;53.876;10.662;2023-08-21T12:21:28;102327.88;;;27.03
8533;BMP280;4304;53.876;10.662;2023-08-21T12:23:53;102310.50;;;27.15
8533;BMP280;4304;53.876;10.662;2023-08-21T12:26:19;102302.94;;;27.26
8533;BMP280;4304;53.876;10.662;2023-08-21T12:28:48;102372.81;;;27.46
8533;BMP280;4304;53.876;10.662;2023-08-21T12:31:13;102320.28;;;27.30
8533;BMP280;4304;53.876;10.662;2023-08-21T12:33:39;102368.56;;;27.21
8533;BMP280;4304;53.876;10.662;2023-08-21T12:36:04;102352.84;;;27.26
8533;BMP280;4304;53.876;10.662;2023-08-21T12:38:29;102332.44;;;27.49
8533;BMP280;4304;53.876;10.662;2023-08-21T12:40:55;102275.63;;;27.16
8533;BMP280;4304;53.876;10.662;2023-08-21T12:43:20;102286.97;;;27.10
8533;BMP280;4304;53.876;10.662;2023-08-21T12:45:46;102303.09;;;27.25
8533;BMP280;4304;53.876;10.662;2023-08-21T12:48:12;102345.69;;;27.64
8533;BMP280;4304;53.876;10.662;2023-08-21T12:50:38;102343.91;;;27.57
8533;BMP280;4304;53.876;10.662;2023-08-21T12:53:03;102304.69;;;27.50
8533;BMP280;4304;53.876;10.662;2023-08-21T12:55:28;102323.56;;;27.40
8533;BMP280;4304;53.876;10.662;2023-08-21T12:57:55;102330.44;;;27.35
8533;BMP280;4304;53.876;10.662;2023-08-21T13:00:21;102279.59;;;26.51
8533;BMP280;4304;53.876;10.662;2023-08-21T13:02:46;102251.56;;;26.63
8533;BMP280;4304;53.876;10.662;2023-08-21T13:05:11;102238.06;;;26.64
8533;BMP280;4304;53.876;10.662;2023-08-21T13:07:37;102282.56;;;26.71
8533;BMP280;4304;53.876;10.662;2023-08-21T13:10:02;102312.38;;;26.20
8533;BMP280;4304;53.876;10.662;2023-08-21T13:12:28;102290.69;;;25.91
8533;BMP280;4304;53.876;10.662;2023-08-21T13:14:53;102295.50;;;25.79
8533;BMP280;4304;53.876;10.662;2023-08-21T13:17:19;102279.69;;;25.70
8533;BMP280;4304;53.876;10.662;2023-08-21T13:19:44;102313.44;;;25.70
8533;BMP280;4304;53.876;10.662;2023-08-21T13:22:10;102338.94;;;25.39
8533;BMP280;4304;53.876;10.662;2023-08-21T13:24:35;102295.50;;;25.31
8533;BMP280;4304;53.876;10.662;2023-08-21T13:27:00;102274.63;;;25.18
8533;BMP280;4304;53.876;10.662;2023-08-21T13:29:26;102255.91;;;25.02
8533;BMP280;4304;53.876;10.662;2023-08-21T13:31:51;102262.91;;;25.03
8533;BMP280;4304;53.876;10.662;2023-08-21T13:34:17;102237.69;;;24.82
8533;BMP280;4304;53.876;10.662;2023-08-21T13:36:42;102237.25;;;24.69
8533;BMP280;4304;53.876;10.662;2023-08-21T13:39:08;102233.13;;;24.67
8533;BMP280;4304;53.876;10.662;2023-08-21T13:41:36;102236.44;;;24.69
8533;BMP280;4304;53.876;10.662;2023-08-21T13:44:01;102233.38;;;24.56
8533;BMP280;4304;53.876;10.662;2023-08-21T13:46:28;102212.63;;;24.59
8533;BMP280;4304;53.876;10.662;2023-08-21T13:48:53;102192.22;;;24.68
8533;BMP280;4304;53.876;10.662;2023-08-21T13:51:19;102246.44;;;24.75
8533;BMP280;4304;53.876;10.662;2023-08-21T13:53:44;102210.56;;;24.53
8533;BMP280;4304;53.876;10.662;2023-08-21T13:56:10;102171.06;;;24.58
8533;BMP280;4304;53.876;10.662;2023-08-21T13:58:35;102209.69;;;24.70
8533;BMP280;4304;53.876;10.662;2023-08-21T14:01:00;102199.28;;;24.85
8533;BMP280;4304;53.876;10.662;2023-08-21T14:03:26;102224.03;;;24.77
8533;BMP280;4304;53.876;10.662;2023-08-21T14:05:51;102234.91;;;24.66
8533;BMP280;4304;53.876;10.662;2023-08-21T14:08:17;102219.91;;;24.57
8533;BMP280;4304;53.876;10.662;2023-08-21T14:10:42;102215.13;;;24.61
8533;BMP280;4304;53.876;10.662;2023-08-21T14:13:07;102216.31;;;24.66
8533;BMP280;4304;53.876;10.662;2023-08-21T14:15:34;102219.19;;;24.48
8533;BMP280;4304;53.876;10.662;2023-08-21T14:17:59;102233.53;;;24.54